Time;durP1;ratioP1;P1;durP2;ratioP2;P2;SDS_P1;SDS_P2;PMS_P1;PMS_P2;Temp;Humidity;BMP_temperature;BMP_pressure;BME280_temperature;BME280_humidity;BME280_pressure;Samples;Min_cycle;Max_cycle;Signal;HPM_P1;HPM_P2
2023/01/26 00:00:29;;;;;;;6.47;4.63;;;;;;;;;;5010552;28;20204;-49
2023/01/26 00:02:55;;;;;;;6.00;4.72;;;;;;;;;;5006866;28;20851;-48
2023/01/26 00:05:21;;;;;;;6.32;5.07;;;;;;;;;;5009615;28;20276;-47
2023/01/26 00:07:47;;;;;;;4.97;4.40;;;;;;;;;;5004000;28;20185;-47
2023/01/26 00:10:14;;;;;;;6.38;4.75;;;;;;;;;;5013132;28;20184;-48
2023/01/26 00:12:39;;;;;;;6.53;5.10;;;;;;;;;;5014133;28;20634;-48
2023/01/26 00:15:06;;;;;;;6.47;4.80;;;;;;;;;;5014416;28;20411;-47
2023/01/26 00:17:31;;;;;;;7.75;4.53;;;;;;;;;;5016291;28;20191;-48
2023/01/26 00:19:58;;;;;;;7.00;5.45;;;;;;;;;;5012206;28;20192;-47
2023/01/26 00:22:25;;;;;;;8.45;4.72;;;;;;;;;;5010605;28;20507;-47
2023/01/26 00:24:51;;;;;;;6.50;4.72;;;;;;;;;;5011658;28;20285;-47
2023/01/26 00:27:17;;;;;;;6.28;5.07;;;;;;;;;;5015879;28;20246;-47
2023/01/26 00:29:43;;;;;;;6.60;4.97;;;;;;;;;;5007490;28;20188;-48
2023/01/26 00:32:08;;;;;;;5.82;4.68;;;;;;;;;;5016112;28;20208;-48
2023/01/26 00:34:34;;;;;;;5.60;4.38;;;;;;;;;;5015846;28;20213;-47
2023/01/26 00:37:00;;;;;;;6.13;4.90;;;;;;;;;;5016452;28;20184;-47
2023/01/26 00:39:26;;;;;;;6.72;5.13;;;;;;;;;;5012606;28;20185;-48
2023/01/26 00:42:12;;;;;;;5.45;4.78;;;;;;;;;;5010985;28;20228;-48
2023/01/26 00:44:39;;;;;;;6.28;4.80;;;;;;;;;;5012516;28;20571;-48
2023/01/26 00:47:09;;;;;;;7.18;5.32;;;;;;;;;;5009740;28;20191;-48
2023/01/26 00:49:35;;;;;;;7.32;4.85;;;;;;;;;;5014815;28;20509;-47
2023/01/26 00:52:01;;;;;;;6.07;4.68;;;;;;;;;;5009173;28;20244;-47
2023/01/26 00:54:27;;;;;;;6.45;4.40;;;;;;;;;;5009741;28;20188;-47
2023/01/26 00:56:53;;;;;;;6.40;4.60;;;;;;;;;;5013065;28;20172;-47
2023/01/26 00:59:19;;;;;;;7.38;4.82;;;;;;;;;;5013127;28;20203;-47
2023/01/26 01:01:46;;;;;;;6.63;5.07;;;;;;;;;;5012303;28;20196;-47
2023/01/26 01:04:11;;;;;;;6.10;4.95;;;;;;;;;;5008708;28;20177;-48
2023/01/26 01:06:37;;;;;;;6.32;5.25;;;;;;;;;;5010473;28;20303;-47
2023/01/26 01:09:03;;;;;;;7.03;5.13;;;;;;;;;;5007984;28;20439;-47
2023/01/26 01:11:29;;;;;;;6.68;4.95;;;;;;;;;;5013067;28;20208;-47
2023/01/26 01:13:55;;;;;;;7.03;5.18;;;;;;;;;;5003088;28;20191;-47
2023/01/26 01:16:21;;;;;;;6.78;4.60;;;;;;;;;;5007738;28;20271;-47
2023/01/26 01:18:47;;;;;;;6.45;5.05;;;;;;;;;;5006203;28;20184;-47
2023/01/26 01:21:14;;;;;;;5.53;4.70;;;;;;;;;;5007769;28;20196;-47
2023/01/26 01:23:41;;;;;;;6.55;5.13;;;;;;;;;;5013010;28;20627;-47
2023/01/26 01:26:07;;;;;;;5.47;4.60;;;;;;;;;;5015584;28;20263;-47
2023/01/26 01:28:34;;;;;;;6.75;5.20;;;;;;;;;;5007506;28;20199;-47
2023/01/26 01:31:03;;;;;;;6.13;4.60;;;;;;;;;;5014289;28;20204;-47
2023/01/26 01:33:28;;;;;;;6.10;5.05;;;;;;;;;;5014054;28;20180;-47
2023/01/26 01:35:58;;;;;;;5.13;4.25;;;;;;;;;;5009224;28;20395;-47
2023/01/26 01:38:24;;;;;;;5.97;4.70;;;;;;;;;;5004541;28;20480;-47
2023/01/26 01:40:51;;;;;;;5.50;4.82;;;;;;;;;;5013423;28;20196;-47
2023/01/26 01:43:17;;;;;;;5.70;4.60;;;;;;;;;;5013249;28;20193;-47
2023/01/26 01:45:44;;;;;;;6.43;5.10;;;;;;;;;;5014358;28;20438;-47
2023/01/26 01:48:30;;;;;;;8.32;5.00;;;;;;;;;;5007042;28;20309;-47
2023/01/26 01:51:07;;;;;;;6.10;4.93;;;;;;;;;;5008513;28;20207;-47
2023/01/26 01:53:35;;;;;;;7.03;4.95;;;;;;;;;;5003671;28;20287;-47
2023/01/26 01:56:03;;;;;;;5.93;4.78;;;;;;;;;;5002783;28;20580;-47
2023/01/26 01:58:31;;;;;;;6.03;4.68;;;;;;;;;;5005418;28;20187;-47
2023/01/26 02:00:57;;;;;;;5.80;4.82;;;;;;;;;;5009569;28;20181;-47
2023/01/26 02:03:24;;;;;;;6.97;5.28;;;;;;;;;;5010321;28;20197;-47
2023/01/26 02:05:54;;;;;;;5.95;4.53;;;;;;;;;;5005671;28;20196;-47
2023/01/26 02:08:21;;;;;;;6.43;4.82;;;;;;;;;;5010336;28;20602;-47
2023/01/26 02:10:49;;;;;;;7.00;5.20;;;;;;;;;;5005174;28;20204;-47
2023/01/26 02:13:16;;;;;;;5.25;4.20;;;;;;;;;;5005088;28;20475;-47
2023/01/26 02:15:42;;;;;;;5.88;4.50;;;;;;;;;;5014119;28;20195;-47
2023/01/26 02:18:10;;;;;;;5.90;4.90;;;;;;;;;;5014405;28;20271;-47
2023/01/26 02:20:38;;;;;;;6.45;4.90;;;;;;;;;;5007028;28;20495;-47
2023/01/26 02:23:14;;;;;;;5.70;4.65;;;;;;;;;;5010812;28;20234;-47
2023/01/26 02:25:44;;;;;;;6.05;4.78;;;;;;;;;;5018330;28;20450;-48
2023/01/26 02:28:09;;;;;;;6.10;5.05;;;;;;;;;;5014842;28;20227;-48
2023/01/26 02:30:35;;;;;;;5.85;5.15;;;;;;;;;;5017309;28;20211;-48
2023/01/26 02:33:01;;;;;;;6.07;5.00;;;;;;;;;;5012520;28;20188;-48
2023/01/26 02:35:27;;;;;;;6.15;4.85;;;;;;;;;;5018626;28;20231;-48
2023/01/26 02:37:53;;;;;;;7.00;5.10;;;;;;;;;;5018263;28;20180;-48
2023/01/26 02:40:30;;;;;;;6.25;4.80;;;;;;;;;;5016319;28;20204;-47
2023/01/26 02:42:55;;;;;;;5.68;4.50;;;;;;;;;;5009459;28;20210;-47
2023/01/26 02:45:21;;;;;;;7.05;4.63;;;;;;;;;;5013347;28;20567;-47
2023/01/26 02:47:47;;;;;;;6.53;5.22;;;;;;;;;;5009064;28;20215;-47
2023/01/26 02:50:13;;;;;;;6.53;4.97;;;;;;;;;;5003777;28;20224;-47
2023/01/26 02:52:39;;;;;;;5.70;4.47;;;;;;;;;;5016674;28;20220;-47
2023/01/26 02:55:21;;;;;;;6.78;4.82;;;;;;;;;;5013900;28;20180;-48
2023/01/26 02:57:48;;;;;;;7.07;4.82;;;;;;;;;;5014217;28;20522;-48
2023/01/26 03:00:15;;;;;;;5.80;4.55;;;;;;;;;;5015629;28;20234;-48
2023/01/26 03:02:42;;;;;;;6.57;4.70;;;;;;;;;;5017415;28;20186;-48
2023/01/26 03:05:08;;;;;;;5.70;4.80;;;;;;;;;;5012333;28;20189;-48
2023/01/26 03:07:34;;;;;;;7.05;5.07;;;;;;;;;;5017541;28;20176;-48
2023/01/26 03:10:00;;;;;;;7.55;5.13;;;;;;;;;;5010000;28;20203;-48
2023/01/26 03:12:27;;;;;;;4.85;4.20;;;;;;;;;;5016193;28;20219;-48
2023/01/26 03:17:38;;;;;;;5.07;4.53;;;;;;;;;;5016202;28;20204;-47
2023/01/26 03:28:21;;;;;;;6.65;4.75;;;;;;;;;;5015933;28;20223;-48
2023/01/26 03:30:48;;;;;;;6.10;4.75;;;;;;;;;;5011449;28;20208;-48
2023/01/26 03:33:13;;;;;;;5.10;4.25;;;;;;;;;;5015818;28;20184;-48
2023/01/26 03:35:39;;;;;;;6.28;4.80;;;;;;;;;;5007076;28;20177;-48
2023/01/26 03:38:05;;;;;;;6.00;4.80;;;;;;;;;;5016145;28;20482;-48
2023/01/26 03:57:02;;;;;;;6.05;4.75;;;;;;;;;;5013770;28;20179;-47
2023/01/26 03:59:37;;;;;;;6.30;4.70;;;;;;;;;;5009335;28;20283;-47
2023/01/26 04:10:21;;;;;;;5.82;4.60;;;;;;;;;;5007546;28;20591;-47
2023/01/26 04:23:47;;;;;;;7.55;4.75;;;;;;;;;;5016499;28;20294;-48
2023/01/26 04:26:13;;;;;;;6.72;4.75;;;;;;;;;;5016058;28;20228;-48
2023/01/26 04:28:38;;;;;;;7.45;4.50;;;;;;;;;;5015027;28;20438;-48
2023/01/26 04:31:04;;;;;;;4.95;4.40;;;;;;;;;;5010112;28;20211;-48
2023/01/26 04:33:30;;;;;;;6.28;4.40;;;;;;;;;;5014534;28;20191;-48
2023/01/26 04:35:56;;;;;;;5.68;4.63;;;;;;;;;;5016800;28;20177;-48
2023/01/26 04:38:22;;;;;;;5.53;4.35;;;;;;;;;;5016018;28;20276;-48
2023/01/26 04:40:57;;;;;;;6.25;4.43;;;;;;;;;;5007931;28;20590;-47
2023/01/26 04:43:23;;;;;;;6.05;4.97;;;;;;;;;;5014682;28;20191;-47
2023/01/26 04:46:03;;;;;;;7.07;5.25;;;;;;;;;;5012534;28;20622;-47
2023/01/26 04:48:29;;;;;;;5.07;4.18;;;;;;;;;;5005084;28;20592;-48
2023/01/26 04:51:00;;;;;;;6.13;4.82;;;;;;;;;;5007324;28;20200;-48
2023/01/26 04:53:26;;;;;;;5.78;4.65;;;;;;;;;;5001241;28;20557;-48
2023/01/26 04:55:52;;;;;;;7.22;5.10;;;;;;;;;;5006119;28;20215;-48
2023/01/26 04:58:18;;;;;;;8.02;4.80;;;;;;;;;;5015474;28;20732;-48
2023/01/26 05:00:44;;;;;;;7.20;4.85;;;;;;;;;;5005722;28;20564;-48
2023/01/26 05:03:10;;;;;;;9.55;5.55;;;;;;;;;;5015568;28;20185;-48
2023/01/26 05:05:36;;;;;;;7.18;4.70;;;;;;;;;;5010943;28;20176;-48
2023/01/26 05:08:03;;;;;;;6.32;4.45;;;;;;;;;;5015465;28;20193;-48
2023/01/26 05:10:29;;;;;;;11.35;5.25;;;;;;;;;;5005249;28;20490;-48
2023/01/26 05:12:55;;;;;;;6.40;4.70;;;;;;;;;;5008919;28;20545;-48
2023/01/26 05:15:21;;;;;;;8.30;4.70;;;;;;;;;;5010452;28;20223;-48
2023/01/26 05:17:47;;;;;;;8.13;4.85;;;;;;;;;;5007277;28;20204;-48
2023/01/26 05:20:13;;;;;;;8.00;5.22;;;;;;;;;;5007898;28;20199;-48
2023/01/26 05:22:39;;;;;;;10.15;5.10;;;;;;;;;;5015901;28;20264;-48
2023/01/26 05:25:05;;;;;;;10.32;5.75;;;;;;;;;;5002444;28;20225;-48
2023/01/26 05:27:31;;;;;;;7.82;5.15;;;;;;;;;;5009848;28;20231;-49
2023/01/26 05:29:59;;;;;;;9.93;5.53;;;;;;;;;;5006730;28;20231;-48
2023/01/26 05:32:26;;;;;;;10.00;5.38;;;;;;;;;;5011706;28;20232;-48
2023/01/26 05:34:52;;;;;;;9.55;5.45;;;;;;;;;;5010778;28;20542;-48
2023/01/26 05:37:18;;;;;;;8.93;5.72;;;;;;;;;;5008331;28;20219;-48
2023/01/26 05:39:44;;;;;;;7.63;5.20;;;;;;;;;;5011081;28;20181;-48
2023/01/26 05:42:10;;;;;;;8.05;5.53;;;;;;;;;;5015322;28;20223;-48
2023/01/26 05:44:36;;;;;;;11.88;6.45;;;;;;;;;;5011440;28;20172;-48
2023/01/26 05:47:02;;;;;;;10.15;5.45;;;;;;;;;;5002922;28;20193;-48
2023/01/26 05:49:28;;;;;;;10.05;6.03;;;;;;;;;;5010192;28;20522;-49
2023/01/26 05:51:54;;;;;;;10.98;5.40;;;;;;;;;;5011078;28;20215;-48
2023/01/26 05:54:20;;;;;;;9.10;5.50;;;;;;;;;;5009930;28;20204;-48
2023/01/26 05:56:46;;;;;;;10.13;5.63;;;;;;;;;;5012194;28;20212;-49
2023/01/26 05:59:13;;;;;;;10.32;5.82;;;;;;;;;;5007348;28;20195;-49
2023/01/26 06:01:38;;;;;;;12.25;5.63;;;;;;;;;;5013079;28;20286;-48
2023/01/26 06:04:04;;;;;;;11.23;6.00;;;;;;;;;;5012656;28;20272;-48
2023/01/26 06:06:30;;;;;;;8.05;5.43;;;;;;;;;;5010556;28;20552;-48
2023/01/26 06:08:57;;;;;;;9.27;5.82;;;;;;;;;;5014806;28;20238;-48
2023/01/26 06:11:22;;;;;;;11.45;6.05;;;;;;;;;;5006230;28;20216;-48
2023/01/26 06:13:48;;;;;;;8.05;5.55;;;;;;;;;;5011000;28;20502;-48
2023/01/26 06:16:14;;;;;;;9.95;5.70;;;;;;;;;;5012954;28;20172;-48
2023/01/26 06:18:40;;;;;;;8.85;6.15;;;;;;;;;;5014553;28;20298;-48
2023/01/26 06:21:06;;;;;;;10.85;5.45;;;;;;;;;;5005181;28;20223;-48
2023/01/26 06:23:32;;;;;;;8.48;5.65;;;;;;;;;;5012172;28;20275;-48
2023/01/26 06:25:59;;;;;;;8.95;5.63;;;;;;;;;;5014312;28;20199;-48
2023/01/26 06:28:25;;;;;;;9.45;5.90;;;;;;;;;;5015150;28;20184;-48
2023/01/26 06:30:52;;;;;;;7.97;5.75;;;;;;;;;;5013185;28;20181;-48
2023/01/26 06:33:18;;;;;;;10.70;5.47;;;;;;;;;;5013917;28;20234;-49
2023/01/26 06:35:44;;;;;;;10.07;5.68;;;;;;;;;;5014589;28;20578;-48
2023/01/26 06:38:09;;;;;;;8.00;5.97;;;;;;;;;;5015027;28;20184;-48
2023/01/26 06:40:35;;;;;;;9.70;5.78;;;;;;;;;;5012678;28;20191;-49
2023/01/26 06:43:01;;;;;;;8.77;5.63;;;;;;;;;;5014069;28;20453;-48
2023/01/26 06:45:27;;;;;;;9.45;5.90;;;;;;;;;;5012699;28;20184;-48
2023/01/26 06:47:53;;;;;;;9.35;5.28;;;;;;;;;;5011104;28;20185;-48
2023/01/26 06:50:20;;;;;;;11.07;6.45;;;;;;;;;;5011109;28;20171;-48
2023/01/26 06:52:47;;;;;;;10.48;6.47;;;;;;;;;;5010438;28;20603;-48
2023/01/26 06:55:22;;;;;;;8.57;5.82;;;;;;;;;;5011976;28;20216;-49
2023/01/26 06:57:48;;;;;;;9.77;5.57;;;;;;;;;;5013033;28;20184;-48
2023/01/26 07:00:14;;;;;;;9.85;6.03;;;;;;;;;;5011592;28;20732;-48
2023/01/26 07:02:40;;;;;;;7.65;5.22;;;;;;;;;;5013580;28;20180;-49
2023/01/26 07:05:06;;;;;;;9.73;5.35;;;;;;;;;;5012592;28;20187;-48
2023/01/26 07:07:32;;;;;;;10.52;6.90;;;;;;;;;;5013130;28;20552;-49
2023/01/26 07:09:58;;;;;;;9.70;5.82;;;;;;;;;;5013524;28;20246;-49
2023/01/26 07:12:24;;;;;;;10.02;5.95;;;;;;;;;;5015283;28;20213;-49
2023/01/26 07:14:50;;;;;;;8.98;5.75;;;;;;;;;;5015785;28;20436;-49
2023/01/26 07:17:16;;;;;;;8.27;5.53;;;;;;;;;;5017437;28;20598;-49
2023/01/26 07:19:42;;;;;;;11.13;5.78;;;;;;;;;;5015756;28;20196;-49
2023/01/26 07:22:08;;;;;;;9.70;5.85;;;;;;;;;;5013394;28;20234;-49
2023/01/26 07:24:34;;;;;;;9.25;5.88;;;;;;;;;;5015749;28;20189;-49
2023/01/26 07:27:00;;;;;;;8.38;5.38;;;;;;;;;;5016632;28;20611;-49
2023/01/26 07:29:26;;;;;;;8.10;5.32;;;;;;;;;;5017108;28;20184;-49
2023/01/26 07:31:52;;;;;;;8.63;5.90;;;;;;;;;;5014811;28;20494;-49
2023/01/26 07:34:18;;;;;;;9.70;6.00;;;;;;;;;;5010173;28;20324;-49
2023/01/26 07:36:44;;;;;;;7.68;5.45;;;;;;;;;;5005472;28;20207;-49
2023/01/26 07:39:10;;;;;;;8.57;5.32;;;;;;;;;;5016980;28;20262;-49
2023/01/26 07:41:36;;;;;;;8.43;5.63;;;;;;;;;;5006783;28;20181;-49
2023/01/26 07:44:03;;;;;;;8.77;5.60;;;;;;;;;;5015671;28;20203;-49
2023/01/26 07:46:29;;;;;;;7.35;5.60;;;;;;;;;;5013223;28;20271;-49
2023/01/26 07:48:56;;;;;;;8.15;5.25;;;;;;;;;;5006847;28;20184;-49
2023/01/26 07:51:22;;;;;;;7.35;5.40;;;;;;;;;;5006343;28;20599;-49
2023/01/26 07:53:48;;;;;;;8.88;5.55;;;;;;;;;;5004019;28;20279;-49
2023/01/26 07:56:15;;;;;;;9.07;5.47;;;;;;;;;;5000893;28;20621;-48
2023/01/26 07:58:41;;;;;;;8.73;5.75;;;;;;;;;;5017015;28;20191;-49
2023/01/26 08:01:08;;;;;;;9.10;5.88;;;;;;;;;;4999403;28;20279;-49
2023/01/26 08:03:34;;;;;;;7.72;5.13;;;;;;;;;;4999598;28;20184;-49
2023/01/26 08:06:00;;;;;;;7.88;5.82;;;;;;;;;;5003681;28;20193;-49
2023/01/26 08:08:27;;;;;;;8.48;5.25;;;;;;;;;;5000987;28;20204;-49
2023/01/26 08:10:55;;;;;;;7.60;5.30;;;;;;;;;;5001215;28;20187;-49
2023/01/26 08:13:21;;;;;;;8.95;6.05;;;;;;;;;;5011564;28;20183;-49
2023/01/26 08:15:47;;;;;;;10.43;5.80;;;;;;;;;;5014157;28;20184;-49
2023/01/26 08:18:13;;;;;;;8.13;5.93;;;;;;;;;;5016453;28;20196;-49
2023/01/26 08:20:39;;;;;;;7.53;5.00;;;;;;;;;;5007145;28;20568;-49
2023/01/26 08:23:05;;;;;;;9.90;5.82;;;;;;;;;;5015616;28;20191;-49
2023/01/26 08:25:32;;;;;;;7.22;5.35;;;;;;;;;;5011783;28;20520;-49
2023/01/26 08:27:58;;;;;;;8.43;5.63;;;;;;;;;;5012432;28;20197;-49
2023/01/26 08:30:24;;;;;;;7.70;5.05;;;;;;;;;;5013837;28;20189;-49
2023/01/26 08:32:50;;;;;;;9.35;5.65;;;;;;;;;;5009008;28;20212;-49
2023/01/26 08:35:16;;;;;;;10.75;5.88;;;;;;;;;;5014261;28;20169;-49
2023/01/26 08:37:42;;;;;;;8.43;5.68;;;;;;;;;;5013634;28;20204;-49
2023/01/26 08:40:09;;;;;;;8.60;5.68;;;;;;;;;;5014707;28;20184;-49
2023/01/26 08:42:34;;;;;;;8.05;5.40;;;;;;;;;;5011973;28;20192;-49
2023/01/26 08:45:00;;;;;;;9.82;5.57;;;;;;;;;;5009682;28;20192;-49
2023/01/26 08:47:26;;;;;;;9.82;5.78;;;;;;;;;;5015706;28;20184;-49
2023/01/26 08:49:52;;;;;;;8.05;5.25;;;;;;;;;;5014180;28;20271;-49
2023/01/26 08:52:20;;;;;;;9.45;5.32;;;;;;;;;;5008737;28;20220;-49
2023/01/26 08:54:46;;;;;;;8.50;5.18;;;;;;;;;;5011011;28;20672;-49
2023/01/26 08:57:12;;;;;;;7.85;5.38;;;;;;;;;;5012761;28;20196;-49
2023/01/26 08:59:38;;;;;;;7.57;5.35;;;;;;;;;;5010270;28;20184;-49
2023/01/26 09:02:03;;;;;;;7.75;5.63;;;;;;;;;;5007978;28;20200;-49
2023/01/26 09:04:29;;;;;;;7.65;5.57;;;;;;;;;;5010561;28;20181;-49
2023/01/26 09:06:55;;;;;;;8.02;5.15;;;;;;;;;;5006661;28;20264;-49
2023/01/26 09:09:21;;;;;;;8.32;6.00;;;;;;;;;;5015747;28;20563;-49
2023/01/26 09:11:47;;;;;;;7.82;5.45;;;;;;;;;;5007921;28;20547;-49
2023/01/26 09:14:13;;;;;;;8.73;5.30;;;;;;;;;;5008505;28;20181;-49
2023/01/26 09:16:39;;;;;;;7.55;5.47;;;;;;;;;;5011208;28;20199;-49
2023/01/26 09:19:05;;;;;;;8.02;5.10;;;;;;;;;;5012168;28;20288;-49
2023/01/26 09:21:31;;;;;;;7.88;5.60;;;;;;;;;;5008669;28;20189;-49
2023/01/26 09:23:57;;;;;;;8.20;5.43;;;;;;;;;;5012441;28;20236;-49
2023/01/26 09:26:23;;;;;;;9.07;5.95;;;;;;;;;;5010170;28;20280;-49
2023/01/26 09:28:49;;;;;;;8.60;5.38;;;;;;;;;;5011433;28;20195;-49
2023/01/26 09:31:15;;;;;;;7.00;5.22;;;;;;;;;;5008244;28;20231;-49
2023/01/26 09:33:41;;;;;;;7.70;5.25;;;;;;;;;;5012566;28;20507;-49
2023/01/26 09:36:08;;;;;;;8.98;5.07;;;;;;;;;;5013461;28;20218;-49
2023/01/26 09:38:38;;;;;;;7.68;5.13;;;;;;;;;;5010786;28;20181;-49
2023/01/26 09:41:10;;;;;;;7.80;5.60;;;;;;;;;;5008384;28;20223;-49
2023/01/26 09:43:43;;;;;;;8.48;5.32;;;;;;;;;;5012490;28;20173;-49
2023/01/26 09:46:20;;;;;;;6.90;5.22;;;;;;;;;;5009482;28;20185;-49
2023/01/26 09:48:54;;;;;;;7.13;5.20;;;;;;;;;;5011641;28;20183;-49
2023/01/26 09:51:24;;;;;;;8.02;5.82;;;;;;;;;;5009891;28;20211;-49
2023/01/26 09:53:55;;;;;;;9.02;5.80;;;;;;;;;;5009976;28;20180;-49
2023/01/26 09:56:23;;;;;;;6.15;4.72;;;;;;;;;;5011830;28;20287;-49
2023/01/26 09:58:52;;;;;;;7.35;5.05;;;;;;;;;;5010137;28;20177;-49
2023/01/26 10:01:23;;;;;;;10.50;5.63;;;;;;;;;;5011088;28;20184;-49
2023/01/26 10:03:58;;;;;;;7.70;5.47;;;;;;;;;;5011637;28;20188;-49
2023/01/26 10:06:30;;;;;;;9.50;6.03;;;;;;;;;;5004493;28;20183;-49
2023/01/26 10:08:56;;;;;;;7.72;5.45;;;;;;;;;;5014850;28;20180;-49
2023/01/26 10:11:27;;;;;;;9.32;5.47;;;;;;;;;;5007848;28;20534;-49
2023/01/26 10:14:02;;;;;;;7.20;4.88;;;;;;;;;;5002753;28;20165;-49
2023/01/26 10:16:28;;;;;;;7.40;5.43;;;;;;;;;;5010611;28;20183;-49
2023/01/26 10:19:02;;;;;;;7.07;5.05;;;;;;;;;;5013956;28;20432;-49
2023/01/26 10:21:31;;;;;;;6.50;4.97;;;;;;;;;;5012094;28;20686;-49
2023/01/26 10:23:58;;;;;;;7.68;5.20;;;;;;;;;;5014428;28;20542;-49
2023/01/26 10:26:29;;;;;;;7.82;5.50;;;;;;;;;;5014632;28;20196;-49
2023/01/26 10:28:55;;;;;;;7.85;5.22;;;;;;;;;;5012870;28;20188;-49
2023/01/26 10:31:22;;;;;;;7.30;5.38;;;;;;;;;;5009242;28;20214;-49
2023/01/26 10:33:50;;;;;;;8.65;5.97;;;;;;;;;;5012560;28;20540;-49
2023/01/26 10:36:16;;;;;;;7.45;5.45;;;;;;;;;;5005966;28;20212;-50
2023/01/26 10:38:43;;;;;;;7.57;5.43;;;;;;;;;;5014025;28;20188;-49
2023/01/26 10:41:17;;;;;;;7.70;5.55;;;;;;;;;;5009160;28;20200;-49
2023/01/26 10:43:54;;;;;;;6.45;4.93;;;;;;;;;;5015887;28;20218;-49
2023/01/26 10:46:24;;;;;;;6.82;5.03;;;;;;;;;;5011003;28;20355;-49
2023/01/26 10:48:53;;;;;;;8.20;5.40;;;;;;;;;;5014521;28;20235;-49
2023/01/26 10:51:23;;;;;;;7.90;5.70;;;;;;;;;;5010757;28;20258;-49
2023/01/26 10:53:49;;;;;;;7.07;4.97;;;;;;;;;;5017797;28;20778;-49
2023/01/26 10:56:16;;;;;;;7.32;5.10;;;;;;;;;;5007854;28;20258;-49
2023/01/26 10:58:49;;;;;;;7.25;5.32;;;;;;;;;;5008957;28;20200;-49
2023/01/26 11:01:17;;;;;;;7.18;4.90;;;;;;;;;;5004890;28;20183;-49
2023/01/26 11:03:58;;;;;;;7.45;5.32;;;;;;;;;;5011108;28;20177;-49
2023/01/26 11:06:26;;;;;;;7.78;4.88;;;;;;;;;;5013248;28;20557;-49
2023/01/26 11:08:52;;;;;;;7.72;5.00;;;;;;;;;;5016254;28;20185;-49
2023/01/26 11:11:26;;;;;;;7.82;5.55;;;;;;;;;;5007334;28;20219;-49
2023/01/26 11:14:10;;;;;;;7.85;5.50;;;;;;;;;;5006776;28;20201;-49
2023/01/26 11:16:36;;;;;;;7.65;5.20;;;;;;;;;;5004783;28;20205;-49
2023/01/26 11:19:06;;;;;;;7.05;5.30;;;;;;;;;;5003561;28;20258;-49
2023/01/26 11:21:37;;;;;;;7.32;5.13;;;;;;;;;;5010913;28;20181;-49
2023/01/26 11:24:24;;;;;;;7.22;4.93;;;;;;;;;;5016793;28;20212;-49
2023/01/26 11:27:08;;;;;;;6.60;5.00;;;;;;;;;;5009908;28;20219;-49
2023/01/26 11:29:40;;;;;;;7.05;4.65;;;;;;;;;;5007863;28;20215;-49
2023/01/26 11:32:26;;;;;;;5.25;4.55;;;;;;;;;;5014050;28;20212;-49
2023/01/26 11:34:57;;;;;;;5.97;4.72;;;;;;;;;;5015536;28;20437;-49
2023/01/26 11:37:41;;;;;;;6.32;4.55;;;;;;;;;;5013584;28;20207;-49
2023/01/26 11:40:29;;;;;;;6.88;5.07;;;;;;;;;;5014644;28;20228;-49
2023/01/26 11:43:04;;;;;;;7.55;5.57;;;;;;;;;;5013701;28;20184;-49
2023/01/26 11:45:29;;;;;;;6.60;4.80;;;;;;;;;;5007833;28;20207;-50
2023/01/26 11:48:09;;;;;;;8.32;5.45;;;;;;;;;;5017660;28;20571;-49
2023/01/26 11:50:53;;;;;;;5.93;5.03;;;;;;;;;;5013518;28;20199;-49
2023/01/26 11:53:40;;;;;;;7.03;5.03;;;;;;;;;;5005870;28;20511;-49
2023/01/26 11:56:24;;;;;;;7.05;5.53;;;;;;;;;;5010767;28;20213;-49
2023/01/26 11:58:54;;;;;;;6.25;5.05;;;;;;;;;;5008740;28;20191;-49
2023/01/26 12:01:33;;;;;;;8.25;5.05;;;;;;;;;;5006623;28;20193;-49
2023/01/26 12:03:59;;;;;;;7.68;5.40;;;;;;;;;;5006085;28;20189;-49
2023/01/26 12:06:39;;;;;;;9.05;6.32;;;;;;;;;;5012685;28;20187;-49
2023/01/26 12:09:29;;;;;;;7.78;6.13;;;;;;;;;;5016794;28;20180;-49
2023/01/26 12:11:57;;;;;;;7.53;5.55;;;;;;;;;;5009336;28;20200;-49
2023/01/26 12:14:27;;;;;;;8.88;5.55;;;;;;;;;;5016627;28;20169;-49
2023/01/26 12:17:02;;;;;;;6.43;5.40;;;;;;;;;;5009765;28;20205;-50
2023/01/26 12:19:37;;;;;;;7.93;5.78;;;;;;;;;;5015029;28;20184;-49
2023/01/26 12:22:20;;;;;;;8.75;6.50;;;;;;;;;;5013575;28;20192;-49
2023/01/26 12:24:52;;;;;;;6.70;5.50;;;;;;;;;;5014851;28;20177;-49
2023/01/26 12:27:21;;;;;;;6.00;4.97;;;;;;;;;;5015392;28;20602;-49
2023/01/26 12:29:52;;;;;;;9.13;5.47;;;;;;;;;;5004608;28;20187;-49
2023/01/26 12:32:18;;;;;;;7.40;5.35;;;;;;;;;;5014427;28;20212;-49
2023/01/26 12:34:44;;;;;;;8.48;5.65;;;;;;;;;;5010637;28;20268;-49
2023/01/26 12:37:22;;;;;;;8.57;5.68;;;;;;;;;;5010178;28;20282;-49
2023/01/26 12:39:54;;;;;;;7.75;5.60;;;;;;;;;;5009691;28;20181;-49
2023/01/26 12:42:23;;;;;;;6.78;5.05;;;;;;;;;;5015304;28;20682;-50
2023/01/26 12:44:58;;;;;;;9.30;5.18;;;;;;;;;;5015754;28;20187;-50
2023/01/26 12:47:27;;;;;;;9.90;5.40;;;;;;;;;;5007121;28;20172;-49
2023/01/26 12:50:10;;;;;;;7.03;5.20;;;;;;;;;;5008390;28;20209;-49
2023/01/26 12:52:40;;;;;;;7.95;5.13;;;;;;;;;;5003979;28;20188;-49
2023/01/26 12:55:20;;;;;;;6.50;4.97;;;;;;;;;;5003966;28;20185;-49
2023/01/26 12:57:58;;;;;;;7.50;5.13;;;;;;;;;;5008053;28;20181;-49
2023/01/26 13:00:28;;;;;;;7.95;5.25;;;;;;;;;;5005639;28;20176;-49
2023/01/26 13:03:00;;;;;;;8.18;5.35;;;;;;;;;;5013984;28;20264;-49
2023/01/26 13:05:27;;;;;;;7.30;5.00;;;;;;;;;;5005438;28;20208;-50
2023/01/26 13:07:53;;;;;;;8.35;5.32;;;;;;;;;;5011613;28;20184;-49
2023/01/26 13:10:21;;;;;;;7.28;4.88;;;;;;;;;;5011389;28;20451;-49
2023/01/26 13:12:49;;;;;;;7.45;4.88;;;;;;;;;;5008170;28;20219;-50
2023/01/26 13:15:16;;;;;;;8.35;4.88;;;;;;;;;;5006547;28;20197;-50
2023/01/26 13:18:14;;;;;;;7.70;4.78;;;;;;;;;;5012725;28;20238;-49
2023/01/26 13:20:41;;;;;;;7.95;4.95;;;;;;;;;;4979776;28;20254;-49
2023/01/26 13:23:25;;;;;;;8.30;4.85;;;;;;;;;;5005628;28;20553;-50
2023/01/26 13:26:11;;;;;;;8.43;5.00;;;;;;;;;;5007832;28;20578;-49
2023/01/26 13:28:37;;;;;;;9.00;4.65;;;;;;;;;;5005070;28;20189;-49
2023/01/26 13:31:04;;;;;;;7.40;4.63;;;;;;;;;;5011039;28;20267;-49
2023/01/26 13:33:31;;;;;;;7.00;4.25;;;;;;;;;;5014390;28;20178;-49
2023/01/26 13:35:58;;;;;;;10.43;4.88;;;;;;;;;;5012058;28;20187;-49
2023/01/26 13:38:35;;;;;;;7.38;4.72;;;;;;;;;;5002739;28;20215;-49
2023/01/26 13:41:05;;;;;;;5.95;4.47;;;;;;;;;;5010615;28;20183;-49
2023/01/26 13:43:41;;;;;;;5.88;4.50;;;;;;;;;;5022878;28;20229;-49
2023/01/26 13:46:13;;;;;;;6.15;4.60;;;;;;;;;;4996664;28;20176;-49
2023/01/26 13:48:38;;;;;;;7.32;4.63;;;;;;;;;;5013008;28;20185;-49
2023/01/26 13:51:05;;;;;;;5.72;4.60;;;;;;;;;;5005763;28;20212;-49
2023/01/26 13:53:34;;;;;;;5.85;4.40;;;;;;;;;;5012930;28;20184;-49
2023/01/26 13:56:01;;;;;;;6.50;4.72;;;;;;;;;;5010924;28;20177;-49
2023/01/26 13:58:27;;;;;;;6.70;4.20;;;;;;;;;;5008803;28;20180;-49
2023/01/26 14:00:58;;;;;;;6.47;4.38;;;;;;;;;;5005331;28;20187;-49
2023/01/26 14:03:24;;;;;;;5.82;4.07;;;;;;;;;;4997713;28;20259;-49
2023/01/26 14:05:55;;;;;;;5.85;4.13;;;;;;;;;;5011087;28;20267;-49
2023/01/26 14:08:22;;;;;;;7.30;4.93;;;;;;;;;;5009590;28;20189;-49
2023/01/26 14:10:48;;;;;;;5.43;4.40;;;;;;;;;;5013405;28;20173;-49
2023/01/26 14:13:33;;;;;;;8.80;4.82;;;;;;;;;;5009962;28;20257;-49
2023/01/26 14:16:00;;;;;;;8.27;5.25;;;;;;;;;;5006265;28;20181;-49
2023/01/26 14:18:26;;;;;;;6.55;4.85;;;;;;;;;;5002046;28;20571;-49
2023/01/26 14:21:04;;;;;;;11.52;5.18;;;;;;;;;;5010862;28;20474;-49
2023/01/26 14:23:35;;;;;;;9.65;5.55;;;;;;;;;;5012980;28;20533;-49
2023/01/26 14:26:27;;;;;;;8.15;5.13;;;;;;;;;;5006202;28;20224;-49
2023/01/26 14:28:53;;;;;;;6.80;4.68;;;;;;;;;;5006638;28;20195;-49
2023/01/26 14:31:20;;;;;;;7.18;5.18;;;;;;;;;;5004039;28;20209;-49
2023/01/26 14:33:46;;;;;;;8.18;5.10;;;;;;;;;;5002983;28;20211;-49
2023/01/26 14:36:16;;;;;;;8.95;4.88;;;;;;;;;;5012175;28;20187;-49
2023/01/26 14:38:43;;;;;;;7.97;5.13;;;;;;;;;;5006063;28;20268;-49
2023/01/26 14:41:12;;;;;;;7.07;4.93;;;;;;;;;;5011156;28;20228;-49
2023/01/26 14:43:38;;;;;;;7.68;4.65;;;;;;;;;;5004727;28;20185;-49
2023/01/26 14:46:04;;;;;;;7.82;5.15;;;;;;;;;;5007098;28;20176;-49
2023/01/26 14:48:36;;;;;;;8.00;4.85;;;;;;;;;;5012088;28;20552;-49
2023/01/26 14:51:05;;;;;;;7.43;4.78;;;;;;;;;;5001750;28;20228;-49
2023/01/26 14:53:31;;;;;;;6.18;4.65;;;;;;;;;;5007395;28;20556;-49
2023/01/26 14:55:57;;;;;;;7.40;4.65;;;;;;;;;;5005839;28;20243;-49
2023/01/26 14:58:27;;;;;;;10.48;5.25;;;;;;;;;;5010717;28;20208;-49
2023/01/26 15:00:54;;;;;;;6.22;4.47;;;;;;;;;;4999109;28;20176;-49
2023/01/26 15:03:23;;;;;;;6.68;4.20;;;;;;;;;;5010219;28;20178;-49
2023/01/26 15:06:02;;;;;;;7.00;4.50;;;;;;;;;;5013270;28;20637;-49
2023/01/26 15:08:28;;;;;;;7.28;4.97;;;;;;;;;;5012274;28;20196;-49
2023/01/26 15:13:44;;;;;;;10.82;4.97;;;;;;;;;;5012904;28;20203;-49
2023/01/26 15:16:20;;;;;;;6.53;4.20;;;;;;;;;;5012475;28;20207;-49
2023/01/26 15:18:57;;;;;;;7.70;5.07;;;;;;;;;;5013060;28;20191;-48
2023/01/26 15:21:28;;;;;;;7.20;4.45;;;;;;;;;;5010256;28;20188;-49
2023/01/26 15:23:54;;;;;;;9.35;4.78;;;;;;;;;;5012691;28;20207;-49
2023/01/26 15:26:27;;;;;;;6.57;4.28;;;;;;;;;;5010800;28;20222;-49
2023/01/26 15:28:54;;;;;;;6.32;4.30;;;;;;;;;;5011217;28;20181;-49
2023/01/26 15:31:22;;;;;;;8.93;4.80;;;;;;;;;;5014845;28;20243;-49
2023/01/26 15:33:50;;;;;;;6.93;4.75;;;;;;;;;;5015603;28;20209;-49
2023/01/26 15:36:24;;;;;;;5.35;4.30;;;;;;;;;;5012384;28;20188;-49
2023/01/26 15:38:51;;;;;;;9.57;4.07;;;;;;;;;;5014777;28;20184;-49
2023/01/26 15:41:17;;;;;;;6.05;4.07;;;;;;;;;;5013082;28;20188;-49